createdAt,value
2018-11-11T00:00:25.639Z,989.4
2018-11-11T00:01:26.366Z,989.4
2018-11-11T00:02:27.090Z,989.4
2018-11-11T00:03:27.807Z,989.4
2018-11-11T00:04:29.236Z,989.4
2018-11-11T00:05:30.221Z,989.4
2018-11-11T00:06:31.004Z,989.4
2018-11-11T00:07:31.742Z,989.5
2018-11-11T00:08:32.720Z,989.4
2018-11-11T00:09:34.283Z,989.4
2018-11-11T00:10:35.285Z,989.4
2018-11-11T00:11:36.190Z,989.4
2018-11-11T00:12:36.903Z,989.3
2018-11-11T00:13:37.646Z,989.4
2018-11-11T00:14:38.470Z,989.4
2018-11-11T00:15:39.195Z,989.4
2018-11-11T00:16:39.910Z,989.4
2018-11-11T00:17:40.675Z,989.4
2018-11-11T00:18:41.398Z,989.3
2018-11-11T00:19:42.175Z,989.4
2018-11-11T00:20:42.910Z,989.4
2018-11-11T00:21:43.664Z,989.3
2018-11-11T00:22:44.373Z,989.3
2018-11-11T00:23:45.092Z,989.3
2018-11-11T00:24:45.810Z,989.3
2018-11-11T00:25:46.544Z,989.4
2018-11-11T00:26:47.257Z,989.4
2018-11-11T00:27:47.981Z,989.4
2018-11-11T00:28:48.967Z,989.4
2018-11-11T00:29:49.748Z,989.4
2018-11-11T00:30:51.014Z,989.4
2018-11-11T00:31:51.818Z,989.4
2018-11-11T00:32:52.957Z,989.3
2018-11-11T00:33:53.995Z,989.3
2018-11-11T00:34:54.738Z,989.4
2018-11-11T00:35:56.941Z,989.4
2018-11-11T00:36:58.962Z,989.4
2018-11-11T00:38:01.064Z,989.4
2018-11-11T00:39:02.613Z,989.4
2018-11-11T00:40:04.862Z,989.4
2018-11-11T00:41:07.426Z,989.4
2018-11-11T00:42:09.588Z,989.3
2018-11-11T00:43:11.692Z,989.3
2018-11-11T00:44:13.821Z,989.3
2018-11-11T00:45:16.008Z,989.3
2018-11-11T00:46:18.042Z,989.3
2018-11-11T00:47:20.047Z,989.3
2018-11-11T00:48:21.611Z,989.3
2018-11-11T00:49:23.915Z,989.3
2018-11-11T00:50:25.806Z,989.3
2018-11-11T00:51:28.400Z,989.3
2018-11-11T00:52:30.358Z,989.3
2018-11-11T00:53:32.325Z,989.3
2018-11-11T00:54:34.553Z,989.3
2018-11-11T00:55:36.657Z,989.3
2018-11-11T00:56:38.878Z,989.3
2018-11-11T00:57:40.865Z,989.3
2018-11-11T00:58:43.154Z,989.3
2018-11-11T00:59:44.293Z,989.3
2018-11-11T01:00:45.986Z,989.3
2018-11-11T01:01:48.315Z,989.3
2018-11-11T01:02:50.140Z,989.3
2018-11-11T01:03:51.372Z,989.3
2018-11-11T01:04:53.565Z,989.3
2018-11-11T01:05:55.780Z,989.3
2018-11-11T01:06:58.426Z,989.3
2018-11-11T01:08:00.186Z,989.2
2018-11-11T01:09:01.334Z,989.2
2018-11-11T01:10:03.016Z,989.2
2018-11-11T01:11:04.879Z,989.2
2018-11-11T01:12:06.899Z,989.1
2018-11-11T01:13:08.734Z,989.2
2018-11-11T01:14:10.957Z,989.1
2018-11-11T01:15:12.532Z,989.1
2018-11-11T01:16:14.652Z,989.0
2018-11-11T01:17:16.828Z,989.0
2018-11-11T01:18:17.735Z,989.0
2018-11-11T01:19:18.528Z,989.0
2018-11-11T01:20:19.268Z,989.0
2018-11-11T01:21:20.057Z,988.9
2018-11-11T01:22:20.793Z,988.9
2018-11-11T01:23:21.525Z,988.9
2018-11-11T01:25:37.777Z,989.0
2018-11-11T01:26:39.425Z,989.1
2018-11-11T01:27:41.027Z,989.1
2018-11-11T01:28:42.136Z,989.2
2018-11-11T01:29:42.871Z,989.2
2018-11-11T01:30:44.330Z,989.2
2018-11-11T01:31:45.623Z,989.2
2018-11-11T01:32:46.358Z,989.2
2018-11-11T01:33:48.021Z,989.3
2018-11-11T01:34:48.730Z,989.2
2018-11-11T01:35:49.892Z,989.2
2018-11-11T01:36:50.612Z,989.3
2018-11-11T01:37:51.993Z,989.2
2018-11-11T01:38:52.849Z,989.2
2018-11-11T01:39:53.579Z,989.3
2018-11-11T01:40:54.831Z,989.2
2018-11-11T01:41:56.097Z,989.3
2018-11-11T01:42:56.882Z,989.3
2018-11-11T01:43:57.999Z,989.3
2018-11-11T01:44:58.905Z,989.3
2018-11-11T01:46:00.120Z,989.3
2018-11-11T01:47:00.977Z,989.3
2018-11-11T01:48:01.861Z,989.3
2018-11-11T01:49:02.920Z,989.3
2018-11-11T01:50:03.748Z,989.2
2018-11-11T01:51:04.607Z,989.2
2018-11-11T01:52:05.345Z,989.3
2018-11-11T01:53:06.297Z,989.3
2018-11-11T01:54:07.045Z,989.2
2018-11-11T01:55:08.063Z,989.2
2018-11-11T01:56:08.780Z,989.2
2018-11-11T01:57:09.836Z,989.3
2018-11-11T01:58:10.570Z,989.2
2018-11-11T01:59:11.662Z,989.2
2018-11-11T02:00:12.385Z,989.1
2018-11-11T02:01:13.122Z,989.2
2018-11-11T02:02:13.834Z,989.2
2018-11-11T02:03:14.824Z,989.1
2018-11-11T02:04:15.967Z,989.2
2018-11-11T02:05:16.837Z,989.2
2018-11-11T02:06:17.992Z,989.2
2018-11-11T02:07:18.757Z,989.3
2018-11-11T02:08:19.686Z,989.3
2018-11-11T02:09:20.412Z,989.2
2018-11-11T02:10:21.149Z,989.2
2018-11-11T02:11:22.163Z,989.2
2018-11-11T02:12:22.896Z,989.2
2018-11-11T02:13:24.241Z,989.1
2018-11-11T02:14:24.964Z,989.1
2018-11-11T02:15:26.079Z,989.2
2018-11-11T02:16:26.802Z,989.2
2018-11-11T02:17:27.530Z,989.2
2018-11-11T02:18:28.494Z,989.2
2018-11-11T02:19:29.864Z,989.2
2018-11-11T02:20:30.587Z,989.2
2018-11-11T02:21:31.405Z,989.2
2018-11-11T02:22:32.126Z,989.3
2018-11-11T02:23:32.860Z,989.3
2018-11-11T02:24:33.672Z,989.3
2018-11-11T02:25:34.389Z,989.4
2018-11-11T02:26:35.461Z,989.4
2018-11-11T02:27:36.176Z,989.4
2018-11-11T02:28:37.225Z,989.4
2018-11-11T02:29:38.250Z,989.5
2018-11-11T02:30:39.800Z,989.4
2018-11-11T02:31:40.540Z,989.5
2018-11-11T02:32:41.570Z,989.5
2018-11-11T02:33:42.294Z,989.5
2018-11-11T02:34:43.027Z,989.4
2018-11-11T02:35:43.752Z,989.4
2018-11-11T02:36:44.471Z,989.4
2018-11-11T02:37:45.262Z,989.4
2018-11-11T02:38:45.968Z,989.4
2018-11-11T02:39:46.682Z,989.3
2018-11-11T02:40:47.662Z,989.4
2018-11-11T02:41:48.380Z,989.4
2018-11-11T02:42:49.090Z,989.4
2018-11-11T02:43:49.821Z,989.3
2018-11-11T02:44:50.815Z,989.3
2018-11-11T02:45:51.539Z,989.3
2018-11-11T02:46:52.288Z,989.4
2018-11-11T02:47:53.010Z,989.3
2018-11-11T02:48:53.742Z,989.4
2018-11-11T02:49:54.462Z,989.3
2018-11-11T02:50:55.172Z,989.3
2018-11-11T02:51:56.138Z,989.4
2018-11-11T02:52:56.861Z,989.4
2018-11-11T02:53:57.574Z,989.4
2018-11-11T02:54:58.594Z,989.4
2018-11-11T02:55:59.327Z,989.4
2018-11-11T02:57:00.048Z,989.4
2018-11-11T02:58:00.765Z,989.4
2018-11-11T02:59:01.490Z,989.4
2018-11-11T03:00:02.258Z,989.3
2018-11-11T03:01:02.967Z,989.3
2018-11-11T03:02:03.689Z,989.2
2018-11-11T03:03:04.409Z,989.2
2018-11-11T03:04:05.175Z,989.2
2018-11-11T03:05:05.900Z,989.2
2018-11-11T03:06:06.878Z,989.2
2018-11-11T03:07:07.589Z,989.3
2018-11-11T03:08:08.308Z,989.3
2018-11-11T03:09:09.027Z,989.2
2018-11-11T03:10:09.763Z,989.2
2018-11-11T03:11:10.491Z,989.2
2018-11-11T03:12:11.199Z,989.2
2018-11-11T03:13:11.924Z,989.2
2018-11-11T03:14:12.645Z,989.2
2018-11-11T03:15:13.357Z,989.2
2018-11-11T03:16:14.082Z,989.2
2018-11-11T03:17:14.811Z,989.2
2018-11-11T03:18:15.542Z,989.3
2018-11-11T03:19:16.254Z,989.3
2018-11-11T03:20:17.071Z,989.2
2018-11-11T03:21:18.056Z,989.2
2018-11-11T03:22:18.799Z,989.2
2018-11-11T03:23:20.001Z,989.2
2018-11-11T03:24:20.742Z,989.2
2018-11-11T03:25:21.525Z,989.3
2018-11-11T03:26:22.395Z,989.2
2018-11-11T03:27:23.285Z,989.2
2018-11-11T03:28:24.195Z,989.2
2018-11-11T03:29:24.918Z,989.2
2018-11-11T03:30:25.727Z,989.2
2018-11-11T03:31:26.762Z,989.2
2018-11-11T03:32:27.570Z,989.2
2018-11-11T03:33:28.312Z,989.2
2018-11-11T03:34:29.134Z,989.2
2018-11-11T03:35:29.843Z,989.3
2018-11-11T03:36:30.571Z,989.3
2018-11-11T03:37:31.285Z,989.3
2018-11-11T03:38:32.007Z,989.3
2018-11-11T03:39:32.736Z,989.4
2018-11-11T03:40:33.516Z,989.4
2018-11-11T03:41:34.225Z,989.3
2018-11-11T03:42:34.949Z,989.3
2018-11-11T03:43:35.670Z,989.3
2018-11-11T03:44:36.397Z,989.3
2018-11-11T03:45:37.173Z,989.3
2018-11-11T03:46:37.903Z,989.3
2018-11-11T03:47:38.630Z,989.3
2018-11-11T03:48:39.358Z,989.4
2018-11-11T03:49:40.073Z,989.4
2018-11-11T03:50:40.782Z,989.4
2018-11-11T03:51:41.492Z,989.4
2018-11-11T03:52:42.214Z,989.3
2018-11-11T03:53:42.926Z,989.3
2018-11-11T03:54:43.652Z,989.4
2018-11-11T03:55:44.375Z,989.4
2018-11-11T03:56:45.115Z,989.4
2018-11-11T03:57:45.838Z,989.4
2018-11-11T03:58:46.601Z,989.4
2018-11-11T03:59:47.272Z,989.4
2018-11-11T04:00:47.997Z,989.3
2018-11-11T04:01:48.966Z,989.3
2018-11-11T04:02:49.684Z,989.4
2018-11-11T04:03:50.406Z,989.4
2018-11-11T04:04:51.120Z,989.4
2018-11-11T04:05:51.857Z,989.4
2018-11-11T04:06:52.827Z,989.4
2018-11-11T04:07:53.633Z,989.4
2018-11-11T04:08:54.356Z,989.4
2018-11-11T04:09:55.076Z,989.4
2018-11-11T04:10:55.794Z,989.4
2018-11-11T04:11:56.527Z,989.4
2018-11-11T04:12:57.307Z,989.4
2018-11-11T04:13:58.038Z,989.4
2018-11-11T04:14:58.748Z,989.4
2018-11-11T04:15:59.475Z,989.4
2018-11-11T04:17:00.207Z,989.4
2018-11-11T04:18:01.017Z,989.4
2018-11-11T04:19:01.729Z,989.4
2018-11-11T04:20:02.455Z,989.4
2018-11-11T04:21:03.230Z,989.4
2018-11-11T04:22:03.916Z,989.4
2018-11-11T04:23:04.725Z,989.3
2018-11-11T04:24:05.454Z,989.3
2018-11-11T04:25:06.187Z,989.3
2018-11-11T04:26:06.905Z,989.3
2018-11-11T04:27:07.613Z,989.3
2018-11-11T04:28:08.385Z,989.3
2018-11-11T04:29:09.114Z,989.3
2018-11-11T04:30:09.830Z,989.3
2018-11-11T04:31:10.544Z,989.4
2018-11-11T04:32:11.262Z,989.3
2018-11-11T04:33:12.238Z,989.3
2018-11-11T04:34:12.950Z,989.4
2018-11-11T04:35:13.670Z,989.4
2018-11-11T04:36:14.650Z,989.4
2018-11-11T04:37:15.381Z,989.4
2018-11-11T04:38:16.105Z,989.4
2018-11-11T04:39:16.903Z,989.3
2018-11-11T04:40:17.540Z,989.3
2018-11-11T04:41:18.262Z,989.4
2018-11-11T04:42:18.976Z,989.4
2018-11-11T04:43:19.695Z,989.4
2018-11-11T04:44:20.418Z,989.4
2018-11-11T04:45:21.237Z,989.5
2018-11-11T04:46:21.969Z,989.5
2018-11-11T04:47:22.671Z,989.5
2018-11-11T04:48:23.389Z,989.5
2018-11-11T04:49:24.102Z,989.4
2018-11-11T04:50:24.881Z,989.4
2018-11-11T04:51:25.607Z,989.4
2018-11-11T04:52:26.320Z,989.4
2018-11-11T04:53:27.046Z,989.4
2018-11-11T04:54:27.762Z,989.4
2018-11-11T04:55:28.478Z,989.4
2018-11-11T04:56:29.197Z,989.4
2018-11-11T04:57:29.910Z,989.4
2018-11-11T04:58:30.637Z,989.4
2018-11-11T04:59:31.371Z,989.4
2018-11-11T05:00:32.081Z,989.4
2018-11-11T05:01:32.931Z,989.4
2018-11-11T05:02:33.521Z,989.4
2018-11-11T05:03:34.234Z,989.4
2018-11-11T05:04:34.969Z,989.4
2018-11-11T05:05:35.659Z,989.4
2018-11-11T05:06:36.379Z,989.4
2018-11-11T05:07:37.099Z,989.4
2018-11-11T05:08:37.817Z,989.4
2018-11-11T05:09:38.537Z,989.4
2018-11-11T05:10:39.262Z,989.4
2018-11-11T05:11:39.984Z,989.4
2018-11-11T05:12:40.720Z,989.4
2018-11-11T05:13:41.425Z,989.4
2018-11-11T05:14:42.397Z,989.4
2018-11-11T05:15:43.131Z,989.4
2018-11-11T05:16:43.855Z,989.5
2018-11-11T05:17:44.577Z,989.5
2018-11-11T05:18:45.467Z,989.5
2018-11-11T05:19:46.188Z,989.5
2018-11-11T05:20:46.902Z,989.6
2018-11-11T05:21:47.690Z,989.6
2018-11-11T05:22:48.348Z,989.5
2018-11-11T05:23:49.079Z,989.5
2018-11-11T05:24:49.787Z,989.5
2018-11-11T05:25:50.510Z,989.6
2018-11-11T05:26:51.224Z,989.6
2018-11-11T05:27:51.947Z,989.6
2018-11-11T05:28:52.660Z,989.6
2018-11-11T05:29:53.386Z,989.7
2018-11-11T05:30:54.216Z,989.6
2018-11-11T05:31:54.881Z,989.7
2018-11-11T05:32:55.606Z,989.7
2018-11-11T05:33:56.327Z,989.6
2018-11-11T05:34:57.043Z,989.7
2018-11-11T05:35:57.859Z,989.7
2018-11-11T05:36:58.579Z,989.7
2018-11-11T05:37:59.290Z,989.7
2018-11-11T05:39:00.040Z,989.7
2018-11-11T05:40:00.764Z,989.8
2018-11-11T05:41:01.541Z,989.7
2018-11-11T05:42:02.302Z,989.8
2018-11-11T05:43:03.028Z,989.7
2018-11-11T05:44:03.734Z,989.7
2018-11-11T05:45:04.459Z,989.8
2018-11-11T05:46:05.280Z,989.7
2018-11-11T05:47:06.002Z,989.8
2018-11-11T05:48:06.755Z,989.8
2018-11-11T05:49:07.479Z,989.7
2018-11-11T05:50:08.201Z,989.8
2018-11-11T05:51:08.948Z,989.8
2018-11-11T05:52:09.659Z,989.8
2018-11-11T05:53:10.621Z,989.7
2018-11-11T05:54:11.358Z,989.7
2018-11-11T05:55:12.072Z,989.7
2018-11-11T05:56:12.793Z,989.7
2018-11-11T05:57:13.905Z,989.7
2018-11-11T05:58:14.627Z,989.7
2018-11-11T05:59:15.361Z,989.7
2018-11-11T06:00:16.082Z,989.8
2018-11-11T06:01:16.802Z,989.7
2018-11-11T06:02:17.518Z,989.8
2018-11-11T06:03:18.240Z,989.7
2018-11-11T06:04:19.062Z,989.7
2018-11-11T06:05:19.781Z,989.8
2018-11-11T06:06:20.495Z,989.7
2018-11-11T06:07:21.227Z,989.8
2018-11-11T06:08:21.948Z,989.7
2018-11-11T06:09:22.669Z,989.7
2018-11-11T06:10:23.507Z,989.7
2018-11-11T06:11:24.476Z,989.8
2018-11-11T06:12:25.195Z,989.8
2018-11-11T06:13:25.923Z,989.8
2018-11-11T06:14:26.636Z,989.8
2018-11-11T06:15:27.908Z,989.8
2018-11-11T06:16:28.649Z,989.8
2018-11-11T06:17:29.369Z,989.8
2018-11-11T06:18:30.094Z,989.8
2018-11-11T06:19:31.078Z,989.8
2018-11-11T06:20:31.790Z,989.8
2018-11-11T06:21:32.765Z,989.8
2018-11-11T06:22:33.486Z,989.8
2018-11-11T06:23:34.203Z,989.8
2018-11-11T06:24:34.914Z,989.8
2018-11-11T06:25:35.642Z,989.8
2018-11-11T06:26:36.632Z,989.9
2018-11-11T06:27:37.435Z,989.9
2018-11-11T06:28:38.082Z,989.9
2018-11-11T06:29:38.793Z,989.9
2018-11-11T06:30:39.513Z,989.9
2018-11-11T06:31:40.239Z,989.9
2018-11-11T06:32:40.959Z,989.9
2018-11-11T06:33:41.780Z,989.8
2018-11-11T06:34:42.513Z,989.8
2018-11-11T06:35:43.242Z,989.9
2018-11-11T06:36:44.269Z,989.9
2018-11-11T06:37:44.987Z,989.9
2018-11-11T06:38:45.716Z,990.0
2018-11-11T06:39:46.425Z,990.0
2018-11-11T06:40:47.138Z,989.9
2018-11-11T06:41:47.965Z,990.0
2018-11-11T06:42:48.697Z,990.0
2018-11-11T06:43:49.417Z,990.0
2018-11-11T06:44:50.132Z,990.0
2018-11-11T06:45:50.841Z,990.0
2018-11-11T06:46:51.568Z,990.0
2018-11-11T06:47:52.553Z,990.0
2018-11-11T06:48:53.264Z,990.0
2018-11-11T06:49:54.234Z,990.0
2018-11-11T06:50:55.034Z,990.1
2018-11-11T06:51:55.779Z,990.1
2018-11-11T06:52:56.522Z,990.1
2018-11-11T06:53:57.238Z,990.1
2018-11-11T06:54:57.959Z,990.1
2018-11-11T06:55:58.693Z,990.2
2018-11-11T06:56:59.423Z,990.1
2018-11-11T06:58:00.162Z,990.1
2018-11-11T06:59:00.879Z,990.1
2018-11-11T07:00:01.599Z,990.1
2018-11-11T07:01:02.332Z,990.1
2018-11-11T07:02:03.059Z,990.1
2018-11-11T07:03:03.773Z,990.1
2018-11-11T07:04:04.775Z,990.1
2018-11-11T07:05:05.511Z,990.2
2018-11-11T07:06:06.238Z,990.1
2018-11-11T07:07:06.968Z,990.1
2018-11-11T07:08:08.079Z,990.1
2018-11-11T07:09:08.826Z,990.2
2018-11-11T07:10:09.541Z,990.2
2018-11-11T07:11:10.271Z,990.1
2018-11-11T07:12:11.009Z,990.2
2018-11-11T07:13:11.780Z,990.1
2018-11-11T07:14:12.604Z,990.1
2018-11-11T07:15:13.221Z,990.1
2018-11-11T07:16:13.937Z,990.1
2018-11-11T07:17:14.665Z,990.1
2018-11-11T07:18:15.485Z,990.2
2018-11-11T07:19:16.211Z,990.2
2018-11-11T07:20:17.210Z,990.3
2018-11-11T07:21:17.936Z,990.2
2018-11-11T07:22:18.664Z,990.2
2018-11-11T07:23:19.403Z,990.3
2018-11-11T07:24:20.150Z,990.3
2018-11-11T07:25:20.865Z,990.3
2018-11-11T07:26:21.913Z,990.3
2018-11-11T07:27:22.632Z,990.3
2018-11-11T07:28:23.346Z,990.3
2018-11-11T07:29:24.072Z,990.3
2018-11-11T07:30:24.855Z,990.3
2018-11-11T07:31:25.619Z,990.3
2018-11-11T07:32:26.349Z,990.2
2018-11-11T07:33:27.079Z,990.2
2018-11-11T07:34:27.803Z,990.2
2018-11-11T07:35:28.538Z,990.2
2018-11-11T07:36:29.273Z,990.2
2018-11-11T07:37:30.000Z,990.2
2018-11-11T07:38:30.754Z,990.2
2018-11-11T07:39:31.774Z,990.3
2018-11-11T07:40:32.490Z,990.2
2018-11-11T07:41:33.209Z,990.2
2018-11-11T07:42:34.025Z,990.2
2018-11-11T07:43:34.683Z,990.2
2018-11-11T07:44:35.453Z,990.2
2018-11-11T07:45:36.180Z,990.3
2018-11-11T07:46:36.903Z,990.3
2018-11-11T07:47:37.673Z,990.3
2018-11-11T07:48:38.399Z,990.4
2018-11-11T07:49:39.126Z,990.4
2018-11-11T07:50:40.136Z,990.4
2018-11-11T07:51:41.172Z,990.4
2018-11-11T07:52:42.140Z,990.4
2018-11-11T07:53:43.175Z,990.4
2018-11-11T07:54:44.031Z,990.4
2018-11-11T07:55:44.713Z,990.4
2018-11-11T07:56:45.435Z,990.5
2018-11-11T07:57:46.432Z,990.5
2018-11-11T07:58:47.146Z,990.5
2018-11-11T07:59:48.142Z,990.5
2018-11-11T08:00:48.874Z,990.5
2018-11-11T08:01:49.712Z,990.6
2018-11-11T08:02:50.364Z,990.5
2018-11-11T08:03:51.089Z,990.6
2018-11-11T08:04:51.824Z,990.5
2018-11-11T08:05:52.599Z,990.5
2018-11-11T08:06:53.356Z,990.5
2018-11-11T08:07:54.091Z,990.5
2018-11-11T08:08:54.822Z,990.5
2018-11-11T08:09:55.546Z,990.4
2018-11-11T08:10:56.404Z,990.4
2018-11-11T08:11:57.109Z,990.4
2018-11-11T08:12:57.844Z,990.4
2018-11-11T08:13:58.591Z,990.4
2018-11-11T08:14:59.318Z,990.4
2018-11-11T08:16:00.044Z,990.4
2018-11-11T08:17:00.777Z,990.4
2018-11-11T08:18:01.502Z,990.4
2018-11-11T08:19:02.216Z,990.4
2018-11-11T08:20:02.934Z,990.4
2018-11-11T08:21:03.652Z,990.4
2018-11-11T08:22:04.379Z,990.5
2018-11-11T08:23:05.101Z,990.5
2018-11-11T08:24:05.841Z,990.5
2018-11-11T08:25:06.572Z,990.5
2018-11-11T08:26:07.300Z,990.5
2018-11-11T08:27:08.301Z,990.5
2018-11-11T08:28:09.066Z,990.5
2018-11-11T08:29:09.802Z,990.5
2018-11-11T08:30:10.542Z,990.5
2018-11-11T08:31:11.279Z,990.5
2018-11-11T08:32:12.030Z,990.6
2018-11-11T08:33:12.729Z,990.6
2018-11-11T08:34:13.477Z,990.6
2018-11-11T08:35:14.205Z,990.6
2018-11-11T08:36:14.949Z,990.7
2018-11-11T08:37:15.663Z,990.7
2018-11-11T08:38:16.408Z,990.7
2018-11-11T08:39:17.142Z,990.7
2018-11-11T08:40:17.898Z,990.7
2018-11-11T08:41:18.584Z,990.7
2018-11-11T08:42:19.672Z,990.8
2018-11-11T08:43:20.399Z,990.7
2018-11-11T08:44:21.118Z,990.8
2018-11-11T08:45:21.847Z,990.8
2018-11-11T08:46:22.573Z,990.7
2018-11-11T08:47:23.314Z,990.8
2018-11-11T08:48:24.124Z,990.8
2018-11-11T08:49:24.769Z,990.7
2018-11-11T08:50:25.493Z,990.7
2018-11-11T08:51:26.218Z,990.7
2018-11-11T08:52:27.001Z,990.8
2018-11-11T08:53:27.735Z,990.7
2018-11-11T08:54:28.473Z,990.8
2018-11-11T08:55:29.196Z,990.7
2018-11-11T08:56:29.919Z,990.7
2018-11-11T08:57:30.651Z,990.8
2018-11-11T08:58:31.369Z,990.7
2018-11-11T08:59:32.152Z,990.8
2018-11-11T09:00:32.884Z,990.7
2018-11-11T09:01:33.617Z,990.8
2018-11-11T09:02:34.352Z,990.8
2018-11-11T09:03:35.080Z,990.8
2018-11-11T09:04:35.853Z,990.8
2018-11-11T09:05:36.525Z,990.8
2018-11-11T09:06:37.263Z,990.8
2018-11-11T09:07:37.987Z,990.9
2018-11-11T09:08:38.707Z,990.9
2018-11-11T09:09:39.426Z,990.9
2018-11-11T09:10:40.163Z,991.0
2018-11-11T09:11:40.939Z,990.9
2018-11-11T09:12:41.635Z,990.9
2018-11-11T09:13:42.360Z,990.9
2018-11-11T09:14:43.088Z,990.9
2018-11-11T09:15:43.813Z,991.0
2018-11-11T09:16:44.837Z,991.0
2018-11-11T09:17:45.564Z,991.0
2018-11-11T09:18:46.306Z,991.0
2018-11-11T09:19:47.045Z,991.0
2018-11-11T09:20:47.758Z,991.0
2018-11-11T09:21:48.529Z,990.9
2018-11-11T09:22:49.261Z,991.0
2018-11-11T09:23:50.040Z,991.0
2018-11-11T09:24:50.717Z,991.0
2018-11-11T09:25:51.489Z,991.0
2018-11-11T09:26:52.188Z,991.0
2018-11-11T09:27:52.924Z,991.0
2018-11-11T09:28:53.655Z,991.0
2018-11-11T09:29:54.369Z,991.0
2018-11-11T09:30:55.099Z,991.0
2018-11-11T09:31:55.823Z,991.0
2018-11-11T09:32:56.597Z,991.1
2018-11-11T09:33:57.317Z,991.0
2018-11-11T09:34:58.065Z,991.0
2018-11-11T09:35:58.785Z,991.1
2018-11-11T09:36:59.518Z,991.1
2018-11-11T09:38:00.244Z,991.1
2018-11-11T09:39:01.043Z,991.1
2018-11-11T09:40:01.704Z,991.2
2018-11-11T09:41:02.435Z,991.1
2018-11-11T09:42:03.166Z,991.1
2018-11-11T09:43:03.889Z,991.2
2018-11-11T09:44:04.760Z,991.2
2018-11-11T09:45:05.753Z,991.1
2018-11-11T09:46:06.472Z,991.2
2018-11-11T09:47:07.214Z,991.2
2018-11-11T09:48:07.928Z,991.2
2018-11-11T09:49:08.663Z,991.2
2018-11-11T09:50:09.384Z,991.2
2018-11-11T09:51:10.675Z,991.2
2018-11-11T09:52:11.395Z,991.1
2018-11-11T09:53:12.129Z,991.2
2018-11-11T09:54:12.865Z,991.2
2018-11-11T09:55:13.591Z,991.2
2018-11-11T09:56:14.318Z,991.2
2018-11-11T09:57:15.049Z,991.3
2018-11-11T09:58:15.777Z,991.2
2018-11-11T09:59:16.506Z,991.2
2018-11-11T10:00:17.236Z,991.2
2018-11-11T10:01:18.263Z,991.2
2018-11-11T10:02:18.984Z,991.3
2018-11-11T10:03:19.706Z,991.2
2018-11-11T10:04:20.441Z,991.2
2018-11-11T10:05:21.164Z,991.2
2018-11-11T10:06:21.995Z,991.1
2018-11-11T10:07:22.638Z,991.2
2018-11-11T10:08:23.368Z,991.2
2018-11-11T10:09:24.102Z,991.2
2018-11-11T10:10:24.829Z,991.3
2018-11-11T10:11:25.819Z,991.2
2018-11-11T10:12:26.599Z,991.2
2018-11-11T10:13:27.271Z,991.2
2018-11-11T10:14:27.989Z,991.2
2018-11-11T10:15:28.721Z,991.2
2018-11-11T10:16:29.455Z,991.0
2018-11-11T10:17:30.182Z,991.2
2018-11-11T10:18:31.003Z,991.1
2018-11-11T10:19:31.726Z,991.2
2018-11-11T10:20:32.468Z,991.2
2018-11-11T10:21:33.194Z,991.3
2018-11-11T10:22:33.908Z,991.2
2018-11-11T10:23:34.640Z,991.2
2018-11-11T10:24:35.357Z,991.3
2018-11-11T10:25:36.083Z,991.3
2018-11-11T10:26:36.804Z,991.2
2018-11-11T10:27:37.568Z,991.3
2018-11-11T10:28:38.306Z,991.3
2018-11-11T10:29:39.131Z,991.4
2018-11-11T10:30:39.818Z,991.2
2018-11-11T10:31:40.560Z,991.2
2018-11-11T10:32:41.280Z,991.2
2018-11-11T10:33:42.106Z,991.2
2018-11-11T10:34:42.834Z,991.2
2018-11-11T10:35:43.565Z,991.2
2018-11-11T10:36:44.550Z,991.2
2018-11-11T10:37:45.289Z,991.2
2018-11-11T10:38:46.017Z,991.1
2018-11-11T10:39:46.836Z,991.1
2018-11-11T10:40:47.586Z,991.2
2018-11-11T10:41:48.307Z,991.2
2018-11-11T10:42:49.042Z,991.3
2018-11-11T10:43:49.778Z,991.2
2018-11-11T10:44:50.502Z,991.2
2018-11-11T10:45:51.216Z,991.2
2018-11-11T10:46:51.940Z,991.2
2018-11-11T10:47:52.662Z,991.3
2018-11-11T10:48:53.440Z,991.2
2018-11-11T10:49:54.185Z,991.1
2018-11-11T10:50:54.909Z,991.1
2018-11-11T10:51:55.637Z,991.1
2018-11-11T10:52:56.365Z,991.1
2018-11-11T10:53:57.154Z,991.1
2018-11-11T10:54:57.883Z,991.1
2018-11-11T10:55:58.617Z,991.1
2018-11-11T10:56:59.363Z,991.1
2018-11-11T10:58:00.103Z,991.1
2018-11-11T10:59:00.816Z,991.2
2018-11-11T11:00:01.620Z,991.0
2018-11-11T11:01:02.320Z,991.0
2018-11-11T11:02:03.052Z,991.0
2018-11-11T11:03:03.776Z,990.9
2018-11-11T11:04:04.496Z,990.9
2018-11-11T11:05:05.217Z,991.1
2018-11-11T11:06:05.956Z,991.0
2018-11-11T11:07:06.681Z,990.9
2018-11-11T11:08:07.406Z,991.0
2018-11-11T11:09:08.384Z,991.1
2018-11-11T11:10:09.113Z,991.1
2018-11-11T11:11:10.203Z,991.1
2018-11-11T11:12:10.924Z,991.1
2018-11-11T11:13:11.721Z,991.1
2018-11-11T11:14:12.390Z,991.1
2018-11-11T11:15:13.115Z,991.1
2018-11-11T11:16:13.888Z,991.1
2018-11-11T11:17:14.623Z,991.1
2018-11-11T11:18:15.351Z,991.1
2018-11-11T11:19:16.080Z,991.1
2018-11-11T11:20:16.811Z,991.1
2018-11-11T11:21:17.592Z,991.2
2018-11-11T11:22:18.311Z,991.1
2018-11-11T11:23:19.038Z,991.1
2018-11-11T11:24:19.764Z,991.1
2018-11-11T11:25:20.492Z,991.1
2018-11-11T11:26:21.218Z,991.1
2018-11-11T11:27:21.979Z,991.1
2018-11-11T11:28:22.772Z,991.0
2018-11-11T11:29:23.793Z,991.1
2018-11-11T11:30:24.512Z,991.1
2018-11-11T11:31:25.285Z,991.1
2018-11-11T11:32:26.244Z,991.1
2018-11-11T11:33:27.078Z,991.1
2018-11-11T11:34:27.814Z,991.2
2018-11-11T11:35:28.624Z,991.1
2018-11-11T11:36:29.276Z,991.2
2018-11-11T11:37:30.014Z,991.2
2018-11-11T11:38:30.744Z,991.2
2018-11-11T11:39:31.463Z,991.2
2018-11-11T11:40:32.188Z,991.3
2018-11-11T11:41:32.927Z,991.4
2018-11-11T11:42:33.699Z,991.4
2018-11-11T11:43:34.502Z,991.5
2018-11-11T11:44:35.231Z,991.4
2018-11-11T11:45:35.964Z,991.5
2018-11-11T11:46:36.688Z,991.5
2018-11-11T11:47:37.555Z,991.6
2018-11-11T11:48:38.171Z,991.5
2018-11-11T11:49:38.908Z,991.6
2018-11-11T11:50:39.644Z,991.7
2018-11-11T11:51:40.385Z,991.7
2018-11-11T11:52:41.138Z,991.8
2018-11-11T11:53:41.834Z,991.8
2018-11-11T11:54:42.560Z,991.8
2018-11-11T11:55:43.289Z,991.7
2018-11-11T11:56:44.024Z,991.8
2018-11-11T11:57:44.759Z,991.8
2018-11-11T11:58:45.531Z,991.8
2018-11-11T11:59:46.259Z,991.8
2018-11-11T12:00:47.095Z,991.9
2018-11-11T12:01:48.090Z,991.8
2018-11-11T12:02:48.832Z,991.9
2018-11-11T12:03:49.560Z,991.9
2018-11-11T12:04:50.286Z,991.9
2018-11-11T12:05:51.113Z,991.9
2018-11-11T12:06:51.850Z,991.9
2018-11-11T12:07:52.576Z,991.9
2018-11-11T12:08:53.642Z,992.0
2018-11-11T12:09:54.285Z,992.0
2018-11-11T12:10:55.336Z,992.0
2018-11-11T12:11:56.058Z,992.0
2018-11-11T12:12:56.779Z,992.1
2018-11-11T12:13:57.502Z,992.1
2018-11-11T12:14:58.289Z,992.1
2018-11-11T12:15:59.024Z,992.2
2018-11-11T12:16:59.784Z,992.2
2018-11-11T12:18:00.513Z,992.1
2018-11-11T12:19:01.239Z,992.1
2018-11-11T12:20:02.233Z,992.1
2018-11-11T12:21:02.958Z,992.1
2018-11-11T12:22:03.690Z,992.2
2018-11-11T12:23:04.442Z,992.2
2018-11-11T12:24:05.138Z,992.2
2018-11-11T12:25:06.777Z,992.2
2018-11-11T12:26:07.705Z,992.2
2018-11-11T12:27:08.451Z,992.2
2018-11-11T12:28:09.224Z,992.2
2018-11-11T12:29:10.011Z,992.2
2018-11-11T12:30:10.751Z,992.3
2018-11-11T12:31:12.881Z,992.3
2018-11-11T12:32:14.472Z,992.4
2018-11-11T12:33:15.278Z,992.5
2018-11-11T12:34:16.046Z,992.3
2018-11-11T12:35:16.763Z,992.3
2018-11-11T12:36:17.600Z,992.3
2018-11-11T12:37:18.343Z,992.3
2018-11-11T12:39:20.956Z,992.3
2018-11-11T12:40:21.975Z,992.2
2018-11-11T12:41:22.794Z,992.2
2018-11-11T12:42:23.519Z,992.2
2018-11-11T12:43:24.246Z,992.3
2018-11-11T12:44:25.006Z,992.2
2018-11-11T12:45:25.717Z,992.3
2018-11-11T12:46:27.162Z,992.2
2018-11-11T12:47:27.939Z,992.3
2018-11-11T12:48:28.777Z,992.3
2018-11-11T12:49:29.510Z,992.2
2018-11-11T12:50:30.351Z,992.3
2018-11-11T12:51:31.946Z,992.2
2018-11-11T12:52:32.866Z,992.2
2018-11-11T12:53:33.602Z,992.2
2018-11-11T12:54:34.335Z,992.2
2018-11-11T12:55:35.391Z,992.2
2018-11-11T12:56:36.078Z,992.1
2018-11-11T12:57:36.855Z,992.1
2018-11-11T12:58:37.580Z,992.1
2018-11-11T12:59:38.381Z,992.1
2018-11-11T13:00:39.116Z,992.1
2018-11-11T13:01:39.897Z,992.1
2018-11-11T13:02:41.511Z,992.1
2018-11-11T13:03:42.592Z,992.1
2018-11-11T13:04:43.339Z,992.0
2018-11-11T13:05:44.070Z,992.2